createdAt,value
2023-06-02T00:00:43.645Z,12.62
2023-06-02T00:03:10.489Z,12.59
2023-06-02T00:05:38.694Z,12.41
2023-06-02T00:08:05.648Z,12.45
2023-06-02T00:10:32.347Z,12.51
2023-06-02T00:12:59.033Z,12.66
2023-06-02T00:15:25.912Z,12.41
2023-06-02T00:17:52.600Z,12.48
2023-06-02T00:20:19.279Z,12.55
2023-06-02T00:22:47.615Z,12.61
2023-06-02T00:25:14.319Z,12.51
2023-06-02T00:27:41.140Z,12.36
2023-06-02T00:30:08.916Z,12.33
2023-06-02T00:32:35.600Z,12.23
2023-06-02T00:35:02.495Z,12.54
2023-06-02T00:37:29.218Z,12.33
2023-06-02T00:39:57.253Z,12.26
2023-06-02T00:42:23.953Z,12.12
2023-06-02T00:44:50.700Z,12.43
2023-06-02T00:47:17.328Z,12.40
2023-06-02T00:49:44.117Z,12.27
2023-06-02T00:52:11.741Z,12.15
2023-06-02T00:54:38.324Z,12.25
2023-06-02T00:57:07.233Z,11.97
2023-06-02T00:59:34.028Z,12.20
2023-06-02T01:02:00.655Z,12.27
2023-06-02T01:04:27.685Z,12.39
2023-06-02T01:06:56.334Z,12.26
2023-06-02T01:09:23.141Z,12.21
2023-06-02T01:11:51.024Z,12.21
2023-06-02T01:14:19.209Z,12.10
2023-06-02T01:16:45.927Z,11.97
2023-06-02T01:19:13.358Z,12.10
2023-06-02T01:21:41.961Z,12.20
2023-06-02T01:24:10.064Z,12.14
2023-06-02T01:26:36.704Z,12.12
2023-06-02T01:29:03.875Z,12.33
2023-06-02T01:31:35.035Z,12.06
2023-06-02T01:34:09.672Z,12.12
2023-06-02T01:36:38.700Z,12.05
2023-06-02T01:39:07.504Z,12.14
2023-06-02T01:41:41.368Z,12.05
2023-06-02T01:44:08.753Z,12.38
2023-06-02T01:46:35.513Z,12.26
2023-06-02T01:49:02.231Z,12.24
2023-06-02T01:51:28.798Z,12.14
2023-06-02T01:53:55.598Z,12.01
2023-06-02T01:56:22.248Z,12.16
2023-06-02T01:58:50.248Z,12.06
2023-06-02T02:01:17.008Z,11.70
2023-06-02T02:03:43.831Z,11.59
2023-06-02T02:06:10.524Z,11.80
2023-06-02T02:08:37.291Z,11.82
2023-06-02T02:11:04.164Z,11.57
2023-06-02T02:13:30.767Z,11.44
2023-06-02T02:15:58.884Z,11.49
2023-06-02T02:18:25.503Z,11.51
2023-06-02T02:20:52.528Z,11.43
2023-06-02T02:23:19.207Z,11.63
2023-06-02T02:25:45.812Z,11.68
2023-06-02T02:28:12.549Z,11.57
2023-06-02T02:30:39.139Z,11.83
2023-06-02T02:33:07.221Z,11.70
2023-06-02T02:35:33.883Z,11.76
2023-06-02T02:38:00.495Z,11.71
2023-06-02T02:40:27.099Z,11.71
2023-06-02T02:42:53.715Z,11.63
2023-06-02T02:45:21.142Z,11.68
2023-06-02T02:47:47.827Z,11.73
2023-06-02T02:50:15.861Z,11.72
2023-06-02T02:52:42.835Z,11.53
2023-06-02T02:55:09.601Z,11.64
2023-06-02T02:57:36.357Z,11.56
2023-06-02T03:00:03.541Z,11.21
2023-06-02T03:02:30.217Z,11.27
2023-06-02T03:04:56.894Z,11.45
2023-06-02T03:07:25.045Z,11.46
2023-06-02T03:09:51.541Z,11.44
2023-06-02T03:12:18.213Z,11.20
2023-06-02T03:14:44.765Z,10.91
2023-06-02T03:17:11.884Z,10.98
2023-06-02T03:19:38.534Z,11.14
2023-06-02T03:22:05.632Z,10.99
2023-06-02T03:24:33.998Z,11.02
2023-06-02T03:27:00.637Z,11.13
2023-06-02T03:29:27.313Z,11.16
2023-06-02T03:31:55.484Z,10.67
2023-06-02T03:34:22.332Z,10.68
2023-06-02T03:36:49.132Z,10.93
2023-06-02T03:39:16.184Z,11.02
2023-06-02T03:41:44.498Z,11.10
2023-06-02T03:44:11.260Z,11.13
2023-06-02T03:46:37.983Z,11.16
2023-06-02T03:49:04.607Z,11.07
2023-06-02T03:51:31.357Z,11.03
2023-06-02T03:53:57.973Z,11.10
2023-06-02T03:56:24.583Z,11.16
2023-06-02T03:58:52.822Z,11.23
2023-06-02T04:01:19.319Z,11.17
2023-06-02T04:03:46.235Z,11.44
2023-06-02T04:06:13.566Z,11.38
2023-06-02T04:08:40.668Z,11.29
2023-06-02T04:11:07.496Z,11.28
2023-06-02T04:13:34.436Z,11.27
2023-06-02T04:16:03.065Z,11.05
2023-06-02T04:18:31.128Z,11.01
2023-06-02T04:20:57.713Z,11.19
2023-06-02T04:23:24.426Z,10.93
2023-06-02T04:25:51.054Z,11.37
2023-06-02T04:28:17.679Z,11.35
2023-06-02T04:30:44.362Z,11.68
2023-06-02T04:33:12.334Z,11.56
2023-06-02T04:35:39.131Z,11.50
2023-06-02T04:38:07.288Z,11.47
2023-06-02T04:40:33.921Z,11.72
2023-06-02T04:43:00.532Z,11.76
2023-06-02T04:45:27.216Z,11.72
2023-06-02T04:47:54.158Z,12.04
2023-06-02T04:50:22.274Z,11.99
2023-06-02T04:52:49.037Z,11.98
2023-06-02T04:55:15.708Z,12.12
2023-06-02T04:57:42.961Z,12.24
2023-06-02T05:00:11.090Z,12.10
2023-06-02T05:02:37.735Z,11.60
2023-06-02T05:05:05.042Z,11.74
2023-06-02T05:07:33.087Z,11.85
2023-06-02T05:09:59.697Z,11.67
2023-06-02T05:12:26.384Z,11.75
2023-06-02T05:14:53.022Z,12.07
2023-06-02T05:17:22.137Z,12.20
2023-06-02T05:19:49.188Z,11.78
2023-06-02T05:22:15.843Z,12.15
2023-06-02T05:24:44.873Z,12.23
2023-06-02T05:27:11.624Z,12.13
2023-06-02T05:29:38.230Z,12.12
2023-06-02T05:32:05.816Z,12.18
2023-06-02T05:34:32.601Z,12.04
2023-06-02T05:37:02.576Z,12.19
2023-06-02T05:39:29.114Z,12.52
2023-06-02T05:41:57.173Z,12.43
2023-06-02T05:44:23.747Z,12.53
2023-06-02T05:46:50.437Z,12.28
2023-06-02T05:49:17.090Z,12.56
2023-06-02T05:51:43.815Z,12.52
2023-06-02T05:54:10.909Z,12.55
2023-06-02T05:56:37.555Z,12.28
2023-06-02T05:59:05.643Z,12.86
2023-06-02T06:01:32.679Z,12.84
2023-06-02T06:03:59.434Z,12.90
2023-06-02T06:06:26.126Z,13.17
2023-06-02T06:08:52.901Z,13.09
2023-06-02T06:11:20.182Z,12.80
2023-06-02T06:13:46.838Z,12.88
2023-06-02T06:16:14.922Z,13.38
2023-06-02T06:18:41.576Z,13.13
2023-06-02T06:21:08.325Z,13.03
2023-06-02T06:23:34.912Z,12.95
2023-06-02T06:26:02.012Z,13.00
2023-06-02T06:28:28.973Z,13.56
2023-06-02T06:30:55.854Z,13.87
2023-06-02T06:33:23.840Z,13.86
2023-06-02T06:35:50.570Z,13.82
2023-06-02T06:38:17.196Z,13.71
2023-06-02T06:40:44.668Z,13.34
2023-06-02T06:43:23.767Z,13.48
2023-06-02T06:45:53.762Z,13.18
2023-06-02T06:48:20.545Z,13.14
2023-06-02T06:50:49.585Z,13.38
2023-06-02T06:53:16.263Z,13.91
2023-06-02T06:55:42.854Z,14.16
2023-06-02T06:58:09.704Z,14.18
2023-06-02T07:00:36.317Z,14.49
2023-06-02T07:03:05.901Z,14.47
2023-06-02T07:05:32.617Z,14.54
2023-06-02T07:08:00.996Z,14.41
2023-06-02T07:10:27.754Z,14.38
2023-06-02T07:12:54.660Z,13.99
2023-06-02T07:15:21.331Z,14.20
2023-06-02T07:17:48.175Z,14.12
2023-06-02T07:20:17.701Z,14.58
2023-06-02T07:22:44.369Z,15.16
2023-06-02T07:25:12.673Z,15.06
2023-06-02T07:27:39.263Z,15.38
2023-06-02T07:30:07.336Z,15.16
2023-06-02T07:32:34.065Z,15.58
2023-06-02T07:35:00.739Z,15.11
2023-06-02T07:37:27.562Z,15.15
2023-06-02T07:39:54.401Z,15.23
2023-06-02T07:42:23.176Z,15.31
2023-06-02T07:44:49.871Z,15.91
2023-06-02T07:47:16.605Z,15.92
2023-06-02T07:49:43.507Z,15.28
2023-06-02T07:52:10.485Z,15.71
2023-06-02T07:54:37.123Z,15.46
2023-06-02T07:57:04.110Z,15.69
2023-06-02T07:59:32.292Z,15.25
2023-06-02T08:01:59.457Z,15.37
2023-06-02T08:04:26.158Z,15.57
2023-06-02T08:06:53.820Z,15.89
2023-06-02T08:09:20.458Z,15.44
2023-06-02T08:11:49.293Z,16.41
2023-06-02T08:14:19.185Z,17.31
2023-06-02T08:16:57.633Z,16.47
2023-06-02T08:19:25.175Z,16.43
2023-06-02T08:21:52.385Z,16.61
2023-06-02T08:24:19.564Z,16.07
2023-06-02T08:26:46.137Z,16.15
2023-06-02T08:29:12.763Z,15.94
2023-06-02T08:31:39.727Z,16.41
2023-06-02T08:34:07.871Z,17.03
2023-06-02T08:36:34.621Z,17.38
2023-06-02T08:39:01.480Z,17.15
2023-06-02T08:41:28.697Z,17.35
2023-06-02T08:43:56.610Z,16.87
2023-06-02T08:46:23.422Z,16.50
2023-06-02T08:48:51.672Z,16.61
2023-06-02T08:51:22.761Z,16.32
2023-06-02T08:53:49.506Z,16.80
2023-06-02T08:56:16.715Z,16.66
2023-06-02T08:58:47.512Z,17.40
2023-06-02T09:01:14.375Z,18.07
2023-06-02T09:03:46.963Z,17.94
2023-06-02T09:06:18.906Z,18.04
2023-06-02T09:08:54.725Z,18.28
2023-06-02T09:11:21.332Z,18.24
2023-06-02T09:13:47.991Z,17.85
2023-06-02T09:16:14.746Z,17.69
2023-06-02T09:18:55.244Z,17.35
2023-06-02T09:21:26.583Z,17.25
2023-06-02T09:24:11.288Z,17.02
2023-06-02T09:26:48.639Z,16.96
2023-06-02T09:29:15.360Z,17.18
2023-06-02T09:31:46.843Z,16.99
2023-06-02T09:34:14.186Z,17.30
2023-06-02T09:36:41.086Z,16.50
2023-06-02T09:39:09.277Z,16.41
2023-06-02T09:41:35.956Z,16.43
2023-06-02T09:44:02.639Z,16.65
2023-06-02T09:46:29.455Z,16.28
2023-06-02T09:48:57.757Z,16.48
2023-06-02T09:51:25.812Z,16.95
2023-06-02T09:53:53.101Z,17.31
2023-06-02T09:56:22.153Z,16.55
2023-06-02T09:58:49.410Z,17.05
2023-06-02T10:01:16.609Z,17.19
2023-06-02T10:03:43.722Z,17.64
2023-06-02T10:06:20.611Z,17.14
2023-06-02T10:09:00.206Z,16.76
2023-06-02T10:11:35.735Z,16.67
2023-06-02T10:14:18.226Z,16.42
2023-06-02T10:16:58.178Z,17.25
2023-06-02T10:20:05.657Z,16.97
2023-06-02T10:22:46.594Z,16.33
2023-06-02T10:25:22.151Z,16.69
2023-06-02T10:27:51.306Z,16.22
2023-06-02T10:30:21.060Z,16.84
2023-06-02T10:32:49.348Z,17.19
2023-06-02T10:35:16.886Z,17.75
2023-06-02T10:37:43.541Z,17.07
2023-06-02T10:40:10.643Z,17.10
2023-06-02T10:42:38.680Z,17.37
2023-06-02T10:45:44.854Z,17.32
2023-06-02T10:48:38.407Z,17.15
2023-06-02T10:51:06.144Z,17.05
2023-06-02T10:53:33.474Z,17.58
2023-06-02T10:56:35.140Z,17.40
2023-06-02T10:59:01.849Z,17.71
2023-06-02T11:01:48.945Z,17.86
2023-06-02T11:04:27.116Z,18.39
2023-06-02T11:07:18.059Z,17.32
2023-06-02T11:09:45.439Z,17.36
2023-06-02T11:12:12.478Z,17.55
2023-06-02T11:15:18.208Z,17.83
2023-06-02T11:17:46.313Z,17.70
2023-06-02T11:20:21.097Z,17.82
2023-06-02T11:22:48.198Z,17.94
2023-06-02T11:25:16.575Z,17.82
2023-06-02T11:27:44.766Z,18.17
2023-06-02T11:30:13.798Z,18.11
2023-06-02T11:32:40.648Z,18.07
2023-06-02T11:35:15.806Z,17.88
2023-06-02T11:38:01.486Z,18.12
2023-06-02T11:40:30.983Z,18.15
2023-06-02T11:49:24.852Z,17.44
2023-06-02T11:52:08.209Z,17.29
2023-06-02T11:54:49.614Z,17.64
2023-06-02T11:57:26.046Z,17.41
2023-06-02T12:00:05.943Z,17.91
2023-06-02T12:02:33.193Z,18.03
2023-06-02T12:04:59.953Z,17.58
2023-06-02T12:07:28.516Z,17.83
2023-06-02T12:09:57.172Z,17.95
2023-06-02T12:12:23.937Z,17.93
2023-06-02T12:14:50.715Z,18.18
2023-06-02T12:17:17.922Z,18.14
2023-06-02T12:19:44.660Z,18.30
2023-06-02T12:22:11.943Z,19.00
2023-06-02T12:24:39.133Z,18.24
2023-06-02T12:27:08.349Z,18.29
2023-06-02T12:29:36.068Z,17.98
2023-06-02T12:32:05.365Z,17.84
2023-06-02T12:34:32.415Z,17.75
2023-06-02T12:36:59.119Z,17.70
2023-06-02T12:39:25.892Z,18.35
2023-06-02T12:41:52.592Z,18.48
2023-06-02T12:44:20.735Z,18.66
2023-06-02T12:46:47.860Z,18.74
2023-06-02T12:49:14.799Z,18.82
2023-06-02T12:52:23.170Z,18.66
2023-06-02T12:54:49.831Z,18.78
2023-06-02T12:57:16.465Z,18.39
2023-06-02T12:59:44.587Z,18.24
2023-06-02T13:02:11.641Z,18.48
2023-06-02T13:04:38.553Z,18.93
2023-06-02T13:07:07.147Z,18.55
2023-06-02T13:09:33.784Z,18.60
2023-06-02T13:12:00.529Z,19.08
2023-06-02T13:14:27.155Z,19.03
2023-06-02T13:16:55.283Z,18.51
2023-06-02T13:19:22.444Z,18.48
2023-06-02T13:21:49.653Z,18.43
2023-06-02T13:24:16.319Z,18.09
2023-06-02T13:26:43.287Z,18.00
2023-06-02T13:29:09.922Z,18.39
2023-06-02T13:31:36.654Z,18.80
2023-06-02T13:34:05.265Z,18.95
2023-06-02T13:36:34.976Z,18.60
2023-06-02T13:39:01.715Z,19.06
2023-06-02T13:41:31.566Z,18.96
2023-06-02T13:43:58.714Z,18.90
2023-06-02T13:46:26.330Z,18.94
2023-06-02T13:48:57.395Z,18.85
2023-06-02T13:51:25.524Z,19.10
2023-06-02T13:53:52.320Z,18.93
2023-06-02T13:57:15.139Z,18.61
2023-06-02T13:59:22.133Z,19.06
2023-06-02T14:01:49.040Z,19.60
2023-06-02T14:04:15.885Z,19.05
2023-06-02T14:06:43.774Z,18.74
2023-06-02T14:09:10.378Z,18.98
2023-06-02T14:11:37.106Z,19.07
2023-06-02T14:14:04.165Z,19.15
2023-06-02T14:16:30.840Z,19.50
2023-06-02T14:18:57.951Z,19.49
2023-06-02T14:21:26.100Z,19.59
2023-06-02T14:23:54.205Z,18.95
2023-06-02T14:26:21.027Z,18.54
2023-06-02T14:28:47.962Z,18.57
2023-06-02T14:31:14.709Z,18.85
2023-06-02T14:33:41.750Z,18.92
2023-06-02T14:36:09.328Z,19.21
2023-06-02T14:38:35.929Z,19.57
2023-06-02T14:41:04.337Z,19.93
2023-06-02T14:43:30.928Z,20.32
2023-06-02T14:45:57.549Z,19.17
2023-06-02T14:48:24.169Z,18.93
2023-06-02T14:50:50.797Z,18.82
2023-06-02T14:53:17.390Z,18.72
2023-06-02T14:55:44.128Z,18.48
2023-06-02T14:58:12.100Z,18.92
2023-06-02T15:00:38.999Z,18.92
2023-06-02T15:03:05.717Z,19.08
2023-06-02T15:05:32.365Z,19.19
2023-06-02T15:07:59.017Z,18.93
2023-06-02T15:10:25.635Z,19.18
2023-06-02T15:12:52.263Z,19.51
2023-06-02T15:15:20.376Z,19.38
2023-06-02T15:17:47.097Z,18.87
2023-06-02T15:20:13.787Z,18.83
2023-06-02T15:22:40.379Z,18.91
2023-06-02T15:25:07.711Z,19.06
2023-06-02T15:27:34.720Z,18.92
2023-06-02T15:30:01.479Z,18.81
2023-06-02T15:32:29.627Z,19.17
2023-06-02T15:34:56.360Z,19.03
2023-06-02T15:37:23.436Z,18.84
2023-06-02T15:39:50.156Z,18.66
2023-06-02T15:42:16.755Z,18.38
2023-06-02T15:44:43.533Z,19.03
2023-06-02T15:47:10.301Z,19.32
2023-06-02T15:49:38.355Z,18.76
2023-06-02T15:52:06.232Z,19.29
2023-06-02T15:54:32.921Z,18.87
2023-06-02T15:56:59.649Z,18.70
2023-06-02T15:59:26.255Z,18.84
2023-06-02T16:01:53.350Z,19.01
2023-06-02T16:04:20.193Z,18.85
2023-06-02T16:06:48.214Z,18.49
2023-06-02T16:09:15.374Z,18.69
2023-06-02T16:11:41.979Z,18.74
2023-06-02T16:14:08.853Z,18.89
2023-06-02T16:16:35.780Z,18.78
2023-06-02T16:19:02.405Z,18.51
2023-06-02T16:21:29.139Z,18.78
2023-06-02T16:23:57.259Z,18.92
2023-06-02T16:26:24.151Z,18.77
2023-06-02T16:28:51.143Z,18.49
2023-06-02T16:31:20.672Z,18.83
2023-06-02T16:33:47.953Z,18.55
2023-06-02T16:36:14.631Z,18.71
2023-06-02T16:38:41.275Z,18.47
2023-06-02T16:41:09.512Z,18.73
2023-06-02T16:43:36.456Z,18.60
2023-06-02T16:46:06.405Z,18.53
2023-06-02T16:48:35.971Z,18.84
2023-06-02T16:51:03.088Z,18.72
2023-06-02T16:53:44.845Z,18.27
2023-06-02T16:59:43.339Z,19.05
2023-06-02T17:05:22.220Z,18.59
2023-06-02T17:11:24.173Z,18.48
2023-06-02T17:14:34.305Z,18.60
2023-06-02T17:17:35.541Z,18.28
2023-06-02T17:23:27.011Z,18.12
2023-06-02T17:25:55.683Z,18.28
2023-06-02T17:41:20.205Z,18.47
2023-06-02T17:44:26.462Z,18.58
2023-06-02T17:47:28.904Z,18.83
2023-06-02T17:50:34.541Z,18.69
2023-06-02T17:53:01.440Z,18.46
2023-06-02T17:55:28.220Z,18.46
2023-06-02T17:57:57.728Z,18.39
2023-06-02T18:00:36.947Z,18.56
2023-06-02T18:03:04.089Z,18.70
2023-06-02T18:05:30.864Z,18.45
2023-06-02T18:07:57.493Z,18.57
2023-06-02T18:10:24.570Z,18.30
2023-06-02T18:12:53.280Z,18.18
2023-06-02T18:15:21.660Z,18.42
2023-06-02T18:18:01.539Z,18.54
2023-06-02T18:20:42.610Z,18.26
2023-06-02T18:23:28.948Z,18.09
2023-06-02T18:25:55.706Z,18.09
2023-06-02T18:28:26.869Z,18.19
2023-06-02T18:30:55.361Z,17.90
2023-06-02T18:33:50.642Z,18.04
2023-06-02T18:36:17.676Z,18.04
2023-06-02T18:38:47.221Z,17.96
2023-06-02T18:41:17.524Z,17.93
2023-06-02T18:43:55.882Z,17.75
2023-06-02T18:46:59.918Z,17.98
2023-06-02T18:49:50.347Z,17.80
2023-06-02T18:52:33.574Z,17.67
2023-06-02T18:55:00.407Z,17.59
2023-06-02T18:57:27.341Z,17.39
2023-06-02T18:59:53.990Z,17.47
2023-06-02T19:02:20.792Z,17.56
2023-06-02T19:04:49.010Z,17.55
2023-06-02T19:07:15.707Z,17.50
2023-06-02T19:09:42.622Z,17.54
2023-06-02T19:16:17.206Z,17.00
2023-06-02T19:19:03.611Z,17.05
2023-06-02T19:21:39.311Z,16.88
2023-06-02T19:27:31.332Z,16.92
2023-06-02T19:33:14.644Z,16.74
2023-06-02T19:35:58.595Z,16.68
2023-06-02T19:38:26.851Z,16.61
2023-06-02T19:41:10.041Z,16.59
2023-06-02T19:44:24.756Z,16.68
2023-06-02T19:50:26.079Z,16.55
2023-06-02T19:53:10.590Z,16.39
2023-06-02T19:55:38.769Z,16.43
2023-06-02T19:58:11.402Z,16.44
2023-06-02T20:00:58.177Z,16.25
2023-06-02T20:03:25.092Z,16.33
2023-06-02T20:05:51.817Z,16.20
2023-06-02T20:08:18.612Z,16.23
2023-06-02T20:10:46.711Z,16.15
2023-06-02T20:13:15.842Z,16.15
2023-06-02T20:16:30.174Z,16.01
2023-06-02T20:19:27.064Z,15.99
2023-06-02T20:21:51.879Z,15.90
2023-06-02T20:27:23.552Z,15.83
2023-06-02T20:29:52.364Z,15.80
2023-06-02T20:36:15.385Z,15.56
2023-06-02T20:44:54.829Z,15.44
2023-06-02T20:47:21.538Z,15.46
2023-06-02T20:49:48.166Z,15.38
2023-06-02T20:52:14.893Z,15.40
2023-06-02T20:54:41.845Z,15.47
2023-06-02T20:57:08.467Z,15.35
2023-06-02T20:59:35.308Z,15.37
2023-06-02T21:02:03.743Z,15.31
2023-06-02T21:04:30.488Z,15.23
2023-06-02T21:06:57.157Z,15.25
2023-06-02T21:09:24.312Z,15.04
2023-06-02T21:11:51.029Z,15.01
2023-06-02T21:14:17.628Z,15.13
2023-06-02T21:16:44.475Z,14.99
2023-06-02T21:19:12.544Z,14.99
2023-06-02T21:21:39.211Z,14.97
2023-06-02T21:24:06.159Z,14.98
2023-06-02T21:26:32.882Z,14.89
2023-06-02T21:28:59.463Z,14.97
2023-06-02T21:31:26.356Z,14.89
2023-06-02T21:33:52.979Z,14.88
2023-06-02T21:36:21.084Z,14.87
2023-06-02T21:38:47.788Z,14.89
2023-06-02T21:41:14.436Z,14.81
2023-06-02T21:43:41.158Z,14.71
2023-06-02T21:46:07.816Z,14.74
2023-06-02T21:48:34.566Z,14.83
2023-06-02T21:51:01.173Z,14.77
2023-06-02T21:53:29.198Z,14.74
2023-06-02T21:55:56.085Z,14.77
2023-06-02T21:58:22.756Z,14.74
2023-06-02T22:00:49.575Z,14.79
2023-06-02T22:03:16.349Z,14.71
2023-06-02T22:05:43.097Z,14.68
2023-06-02T22:08:09.765Z,14.77
2023-06-02T22:10:37.862Z,14.73
2023-06-02T22:13:04.522Z,14.60
2023-06-02T22:15:31.228Z,14.79
2023-06-02T22:17:57.956Z,14.55
2023-06-02T22:20:24.702Z,14.70
2023-06-02T22:22:51.289Z,14.66
2023-06-02T22:25:17.944Z,14.65
2023-06-02T22:27:45.930Z,14.82
2023-06-02T22:30:13.345Z,14.71
2023-06-02T22:32:40.008Z,14.65
2023-06-02T22:35:07.350Z,14.58
2023-06-02T22:37:34.054Z,14.68
2023-06-02T22:40:00.772Z,14.61
2023-06-02T22:42:27.442Z,14.56
2023-06-02T22:44:55.389Z,14.65
2023-06-02T22:47:22.284Z,14.68
2023-06-02T22:49:48.881Z,14.59
2023-06-02T22:52:15.498Z,14.64
2023-06-02T22:54:42.116Z,14.57
2023-06-02T22:57:08.704Z,14.38
2023-06-02T22:59:35.739Z,14.62
2023-06-02T23:02:03.844Z,14.61
2023-06-02T23:04:30.507Z,14.39
2023-06-02T23:06:57.633Z,14.42
2023-06-02T23:09:24.257Z,14.46
2023-06-02T23:11:50.865Z,14.39
2023-06-02T23:14:17.756Z,14.26
2023-06-02T23:16:44.355Z,14.46
2023-06-02T23:19:12.321Z,14.21
2023-06-02T23:21:39.071Z,14.27
2023-06-02T23:24:07.534Z,14.19
2023-06-02T23:26:34.253Z,14.31
2023-06-02T23:29:00.862Z,14.20
2023-06-02T23:31:27.457Z,14.18
2023-06-02T23:33:54.073Z,14.12
2023-06-02T23:36:22.200Z,14.10
2023-06-02T23:38:48.831Z,14.01
2023-06-02T23:41:15.424Z,13.88
2023-06-02T23:43:42.361Z,14.02
2023-06-02T23:46:09.022Z,13.97
2023-06-02T23:48:35.631Z,13.85
2023-06-02T23:51:02.810Z,13.76
2023-06-02T23:53:31.113Z,13.77
2023-06-02T23:55:57.697Z,13.69
2023-06-02T23:58:24.353Z,13.73
